Prestwick, United Kingdom
Current Conditions -  °F | °C
As of 2:20 PM on Thursday 29 Jan 2015 (Local Time) from EGPK Reporting Station
Rain Showers Rain Showers  
Wind Chill: 31°   Ceiling: 2000
Heat Index: 37°   Visibility: 6mi
Dew Point: 34°   Wind: 9mph
Humidity: 87%   Direction: 320°NW
Pressure: 28.76"   Gusts: NA
Location:  55.48°N, 4.62°W
Report Text: EGPK 291420Z 32008KT 9999 -SHRA FEW012CB BKN020 03/01 Q0974
Loading
Personal Weather Stations






























Interactive Weather Map New forecast layout! Learn more

10-Day Weather Forecast

Advertisements
Track Severe Weather on mobile